Terminal Aerodrome Forecast
Issued by NWS

Home | Current Version | Previous Version | Text Only | Print | Product List | Glossary On
Versions: 1 2 3 4 5 6 7 8 9 10 11 12 13 14 15 16 17 18 19 20 21 22 23 24 25 26 27 28 29 30 31 32 33 34 35 36 37
000
FTUS43 KGLD 101200 AAA
TAFMCK
TAF AMD
KMCK 101240Z 1013/1112 17010G16KT P6SM BKN010 BKN015
      TEMPO 1013/1015 SCT015
     FM101500 15015G24KT P6SM SKC
     FM110500 17007G17KT P6SM VCTS SCT110CB BKN200=

USA.gov is the U.S. government's official web portal to all federal, state and local government web resources and services.